Currently 63°F in Riverside (Presidential Park), California, USA
63°F
77°F / 59°F
calm
0.00"
Monday, October 14, 2019 10:06 PM PDT

Riverside (Presidential Park), California Weather Summary
Last 36 Hours

Temperature Winds Hourly Humidity Dewpoint
Time Report Norm Report Norm Max Gusts Precip. Rpt. Norm Rpt. Norm Pressure
1Mon 10:06 PM  62.7°F  67°F  calm  1 mph  3 mph  0.00"  72%  60%  53°F  52°F  29.95"
Mon 10:00 PM  63.0°F  67°F  3 mph E  1 mph  3 mph  0.00"  71%  60%  53°F  52°F  29.95"
Mon 09:00 PM  65.7°F  69°F  1 mph S  2 mph  7 mph  0.00"  69%  56%  55°F  52°F  29.93"
Mon 08:00 PM  66.8°F  71°F  5 mph SW  3 mph  8 mph  0.00"  65%  51%  54°F  52°F  29.91"
Mon 07:00 PM  69.2°F  74°F  3 mph W  4 mph  10 mph  0.00"  60%  46%  54°F  51°F  29.89"
Mon 06:00 PM  71.8°F  77°F  3 mph SW  6 mph  12 mph  0.00"  52%  40%  53°F  50°F  29.87"
Mon 05:00 PM  75.3°F  80°F  8 mph SW  7 mph  12 mph  0.00"  42%  35%  50°F  49°F  29.86"
2Mon 04:20 PM  76.6°F  81°F  6 mph W  6 mph  11 mph  ----  38%  33%  48°F  48°F  29.86"
Mon 04:00 PM  76.0°F  81°F  3 mph SW  6 mph  12 mph  0.00"  38%  33%  48°F  48°F  29.86"
Mon 03:00 PM  75.0°F  81°F  2 mph W  5 mph  11 mph  0.00"  41%  33%  49°F  48°F  29.86"
Mon 02:00 PM  72.6°F  80°F  3 mph W  5 mph  9 mph  0.00"  46%  34%  50°F  48°F  29.87"
Mon 01:00 PM  70.9°F  79°F  2 mph NW  4 mph  10 mph  0.00"  50%  36%  51°F  49°F  29.89"
Mon 12:00 PM  68.6°F  77°F  1 mph W  4 mph  10 mph  0.00"  55%  40%  51°F  50°F  29.92"
Mon 11:00 AM  66.3°F  74°F  4 mph W  3 mph  8 mph  0.00"  62%  47%  52°F  51°F  29.93"
Mon 10:00 AM  64.5°F  70°F  2 mph SW  2 mph  5 mph  0.00"  66%  55%  52°F  52°F  29.94"
Mon 09:00 AM  60.7°F  65°F  1 mph SW  1 mph  4 mph  0.00"  77%  66%  53°F  52°F  29.94"
Mon 08:00 AM  60.7°F  60°F  1 mph SE  1 mph  3 mph  0.00"  84%  71%  56°F  51°F  29.92"
Mon 07:00 AM  60.6°F  60°F  calm  1 mph  2 mph  0.00"  83%  71%  55°F  50°F  29.91"
Mon 06:00 AM  60.4°F  60°F  calm  1 mph  2 mph  0.00"  83%  71%  55°F  50°F  29.90"
Mon 05:00 AM  60.6°F  60°F  calm  1 mph  4 mph  0.00"  83%  70%  55°F  50°F  29.89"
Mon 04:00 AM  60.6°F  61°F  1 mph W  1 mph  5 mph  0.00"  84%  70%  55°F  50°F  29.88"
Mon 03:00 AM  61.0°F  61°F  1 mph NW  1 mph  3 mph  0.00"  83%  69%  56°F  50°F  29.88"
Mon 02:00 AM  61.0°F  62°F  2 mph NW  1 mph  3 mph  0.00"  83%  68%  56°F  51°F  29.88"
Mon 01:00 AM  59.2°F  63°F  calm  1 mph  2 mph  0.00"  82%  67%  53°F  51°F  29.88"
3Mon 12:36 AM  59.0°F  63°F  2 mph SE  1 mph  2 mph  ----  81%  66%  53°F  51°F  29.88"
Mon 12:00 AM  59.5°F  64°F  2 mph SE  1 mph  3 mph  0.00"  80%  65%  53°F  51°F  29.88"
Sun 11:00 PM  61.8°F  65°F  calm  1 mph  5 mph  0.00"  79%  63%  55°F  52°F  29.87"
Sun 10:00 PM  62.3°F  67°F  calm  2 mph  5 mph  0.00"  74%  60%  54°F  52°F  29.86"
Sun 09:00 PM  64.1°F  69°F  3 mph W  2 mph  9 mph  0.00"  72%  56%  55°F  52°F  29.85"
Sun 08:00 PM  65.9°F  71°F  4 mph W  3 mph  10 mph  0.00"  67%  51%  54°F  52°F  29.83"
Sun 07:00 PM  68.3°F  74°F  4 mph W  4 mph  12 mph  0.00"  60%  46%  53°F  51°F  29.81"
Sun 06:00 PM  72.7°F  77°F  4 mph W  6 mph  15 mph  0.00"  51%  40%  53°F  50°F  29.79"
Sun 05:00 PM  75.8°F  80°F  8 mph W  7 mph  15 mph  0.00"  43%  35%  51°F  49°F  29.78"
Sun 04:00 PM  78.5°F  82°F  5 mph W  6 mph  17 mph  0.00"  39%  33%  51°F  48°F  29.78"
Sun 03:00 PM  79.6°F  81°F  8 mph SW  5 mph  17 mph  0.00"  30%  33%  45°F  48°F  29.78"
Sun 02:00 PM  79.3°F  80°F  6 mph SW  5 mph  13 mph  0.00"  29%  34%  43°F  48°F  29.78"
Sun 01:00 PM  76.8°F  79°F  3 mph W  4 mph  9 mph  0.00"  25%  36%  37°F  49°F  29.81"
Sun 12:00 PM  74.5°F  77°F  3 mph W  4 mph  9 mph  0.00"  32%  40%  41°F  50°F  29.84"
Sun 11:00 AM  69.5°F  74°F  3 mph NW  3 mph  6 mph  0.00"  38%  47%  42°F  51°F  29.86"

  1. Current weather data. No green row appears if the current weather data is also the high or low for the current day.
  2. High temperature for the current day.
  3. Low temperature for the current day.

The Riverside (Presidential Park), California weather pages are a service of WeatherCurrents.
Copyright ©2019  WeatherCurrents. All rights reserved. - Submit questions and comments - Privacy Policy

This page automatically refreshes every 10 minutes.